Time;durP1;ratioP1;P1;durP2;ratioP2;P2;SDS_P1;SDS_P2;PMS_P1;PMS_P2;Temp;Humidity;BMP_temperature;BMP_pressure;BME280_temperature;BME280_humidity;BME280_pressure;Samples;Min_cycle;Max_cycle;Signal;HPM_P1;HPM_P2
2024/01/07 00:00:35;;;;;;;35.05;20.75;;;;;;;;;;2025597;29;20086;-63
2024/01/07 00:01:36;;;;;;;36.22;20.08;;;;;;;;;;2025820;29;20047;-62
2024/01/07 00:02:37;;;;;;;31.42;18.17;;;;;;;;;;2025849;29;20046;-62
2024/01/07 00:03:39;;;;;;;33.45;19.33;;;;;;;;;;2026488;29;20055;-62
2024/01/07 00:04:40;;;;;;;34.13;19.70;;;;;;;;;;2026374;29;20052;-64
2024/01/07 00:05:41;;;;;;;41.65;20.52;;;;;;;;;;2026404;29;20052;-63
2024/01/07 00:06:42;;;;;;;29.35;17.42;;;;;;;;;;2026707;29;20053;-63
2024/01/07 00:07:43;;;;;;;35.38;19.10;;;;;;;;;;2026543;29;20049;-63
2024/01/07 00:08:43;;;;;;;37.75;20.35;;;;;;;;;;2026490;29;20477;-63
2024/01/07 00:09:44;;;;;;;35.42;19.55;;;;;;;;;;2026597;29;20041;-63
2024/01/07 00:10:45;;;;;;;36.35;20.17;;;;;;;;;;2026331;29;20043;-63
2024/01/07 00:11:46;;;;;;;33.67;18.77;;;;;;;;;;2026331;29;20028;-64
2024/01/07 00:12:48;;;;;;;31.83;18.25;;;;;;;;;;2025250;29;20056;-63
2024/01/07 00:13:48;;;;;;;39.15;20.85;;;;;;;;;;2024779;29;20044;-63
2024/01/07 00:14:49;;;;;;;39.65;20.55;;;;;;;;;;2026440;29;20053;-63
2024/01/07 00:15:50;;;;;;;33.97;20.13;;;;;;;;;;2026255;29;20047;-63
2024/01/07 00:16:51;;;;;;;37.85;20.88;;;;;;;;;;2026351;29;20036;-63
2024/01/07 00:17:51;;;;;;;35.70;20.63;;;;;;;;;;2026415;29;20103;-63
2024/01/07 00:18:52;;;;;;;37.90;20.48;;;;;;;;;;2026246;29;20496;-63
2024/01/07 00:19:53;;;;;;;34.15;20.58;;;;;;;;;;2026215;29;20040;-63
2024/01/07 00:20:53;;;;;;;38.05;21.52;;;;;;;;;;2026450;29;20048;-63
2024/01/07 00:21:54;;;;;;;36.38;21.23;;;;;;;;;;2026320;29;20155;-63
2024/01/07 00:22:56;;;;;;;39.33;21.27;;;;;;;;;;2026218;29;20032;-63
2024/01/07 00:23:56;;;;;;;33.47;20.10;;;;;;;;;;2026535;29;20036;-64
2024/01/07 00:24:57;;;;;;;33.17;19.48;;;;;;;;;;2026270;29;20029;-63
2024/01/07 00:25:58;;;;;;;36.28;19.98;;;;;;;;;;2026361;29;20047;-63
2024/01/07 00:26:59;;;;;;;38.78;19.90;;;;;;;;;;2026241;29;20036;-63
2024/01/07 00:28:00;;;;;;;34.22;19.67;;;;;;;;;;2025671;29;20428;-62
2024/01/07 00:29:01;;;;;;;32.05;18.42;;;;;;;;;;2025721;29;20037;-63
2024/01/07 00:30:01;;;;;;;33.53;18.95;;;;;;;;;;2025790;29;20040;-63
2024/01/07 00:31:02;;;;;;;36.42;19.80;;;;;;;;;;2025681;29;20491;-63
2024/01/07 00:32:03;;;;;;;36.88;20.25;;;;;;;;;;2026167;29;20048;-63
2024/01/07 00:33:04;;;;;;;38.83;20.70;;;;;;;;;;2026200;29;20072;-63
2024/01/07 00:34:05;;;;;;;35.92;20.77;;;;;;;;;;2026207;29;20397;-63
2024/01/07 00:35:05;;;;;;;36.17;20.92;;;;;;;;;;2026323;29;20043;-63
2024/01/07 00:36:06;;;;;;;34.72;20.27;;;;;;;;;;2026090;29;20068;-63
2024/01/07 00:37:07;;;;;;;33.75;18.80;;;;;;;;;;2033316;29;20142;-63
2024/01/07 00:38:08;;;;;;;33.00;18.33;;;;;;;;;;2033980;29;20028;-62
2024/01/07 00:39:08;;;;;;;36.83;20.40;;;;;;;;;;2033955;29;20043;-63
2024/01/07 00:40:09;;;;;;;35.75;21.88;;;;;;;;;;2025615;29;20049;-62
2024/01/07 00:41:10;;;;;;;32.63;19.23;;;;;;;;;;2025525;29;20044;-63
2024/01/07 00:42:11;;;;;;;35.67;19.30;;;;;;;;;;2025699;29;20504;-63
2024/01/07 00:43:12;;;;;;;33.75;19.13;;;;;;;;;;2025546;29;20474;-63
2024/01/07 00:44:12;;;;;;;36.47;20.02;;;;;;;;;;2025791;29;20051;-62
2024/01/07 00:45:13;;;;;;;43.47;21.58;;;;;;;;;;2033874;29;20048;-63
2024/01/07 00:46:14;;;;;;;36.28;21.02;;;;;;;;;;2033880;29;20082;-63
2024/01/07 00:47:15;;;;;;;38.92;20.95;;;;;;;;;;2033995;29;20099;-63
2024/01/07 00:48:15;;;;;;;36.65;21.33;;;;;;;;;;2025575;29;20048;-63
2024/01/07 00:49:16;;;;;;;35.55;20.70;;;;;;;;;;2025531;29;20032;-62
2024/01/07 00:50:17;;;;;;;35.10;20.98;;;;;;;;;;2033946;29;20055;-63
2024/01/07 00:51:18;;;;;;;35.92;20.98;;;;;;;;;;2033985;29;20036;-63
2024/01/07 00:52:19;;;;;;;38.28;22.42;;;;;;;;;;2034003;29;20036;-62
2024/01/07 00:53:19;;;;;;;38.65;20.90;;;;;;;;;;2025484;29;20040;-63
2024/01/07 00:54:20;;;;;;;35.90;18.83;;;;;;;;;;2025550;29;20491;-63
2024/01/07 00:55:23;;;;;;;40.05;21.77;;;;;;;;;;2033852;29;20499;-63
2024/01/07 00:56:27;;;;;;;39.05;22.00;;;;;;;;;;2033909;29;20491;-63
2024/01/07 00:57:28;;;;;;;38.40;19.60;;;;;;;;;;2033458;29;20499;-62
2024/01/07 00:58:28;;;;;;;41.08;22.15;;;;;;;;;;2033916;29;20028;-61
2024/01/07 00:59:29;;;;;;;38.90;21.88;;;;;;;;;;2034187;29;20032;-62
2024/01/07 01:00:30;;;;;;;43.60;22.90;;;;;;;;;;2024773;29;20123;-62
2024/01/07 01:01:31;;;;;;;37.58;21.02;;;;;;;;;;2009985;29;20132;-63
2024/01/07 01:02:32;;;;;;;36.65;22.00;;;;;;;;;;2017507;29;20033;-63
2024/01/07 01:03:32;;;;;;;41.30;21.40;;;;;;;;;;2033947;29;20440;-63
2024/01/07 01:04:33;;;;;;;35.13;19.52;;;;;;;;;;2025460;29;20047;-63
2024/01/07 01:05:34;;;;;;;34.38;18.15;;;;;;;;;;2025108;29;20088;-63
2024/01/07 01:06:35;;;;;;;36.38;21.10;;;;;;;;;;2033937;29;20044;-63
2024/01/07 01:07:35;;;;;;;28.77;16.08;;;;;;;;;;2024850;29;20091;-63
2024/01/07 01:08:36;;;;;;;35.10;17.92;;;;;;;;;;2018284;29;20060;-63
2024/01/07 01:09:37;;;;;;;32.47;18.20;;;;;;;;;;2025454;29;20036;-63
2024/01/07 01:10:38;;;;;;;36.72;19.95;;;;;;;;;;2025487;29;20033;-63
2024/01/07 01:11:39;;;;;;;36.88;19.85;;;;;;;;;;2025549;29;20064;-62
2024/01/07 01:12:40;;;;;;;36.13;20.00;;;;;;;;;;2025369;29;20053;-63
2024/01/07 01:13:41;;;;;;;36.58;20.17;;;;;;;;;;2017150;29;20053;-62
2024/01/07 01:14:41;;;;;;;35.58;20.65;;;;;;;;;;2025377;29;20063;-62
2024/01/07 01:15:42;;;;;;;34.63;20.50;;;;;;;;;;2025361;29;20405;-62
2024/01/07 01:16:43;;;;;;;35.08;19.70;;;;;;;;;;2017430;29;20065;-61
2024/01/07 01:17:44;;;;;;;34.72;17.92;;;;;;;;;;2025081;29;20056;-62
2024/01/07 01:18:45;;;;;;;41.92;22.33;;;;;;;;;;2033965;29;20028;-61
2024/01/07 01:19:45;;;;;;;35.08;18.70;;;;;;;;;;2033859;29;20055;-63
2024/01/07 01:20:46;;;;;;;40.05;23.27;;;;;;;;;;2033793;29;20036;-62
2024/01/07 01:21:47;;;;;;;41.25;21.92;;;;;;;;;;2017238;29;20144;-62
2024/01/07 01:22:48;;;;;;;37.53;18.67;;;;;;;;;;2017753;29;20037;-62
2024/01/07 01:23:48;;;;;;;39.15;21.90;;;;;;;;;;2034049;29;20472;-62
2024/01/07 01:24:51;;;;;;;35.30;18.08;;;;;;;;;;2025659;29;20119;-62
2024/01/07 01:25:51;;;;;;;38.40;21.88;;;;;;;;;;2025818;29;20059;-62
2024/01/07 01:26:52;;;;;;;40.35;21.15;;;;;;;;;;2033677;29;20039;-62
2024/01/07 01:27:53;;;;;;;35.03;18.73;;;;;;;;;;2033873;29;20039;-63
2024/01/07 01:28:54;;;;;;;35.45;21.15;;;;;;;;;;2025591;29;20478;-63
2024/01/07 01:29:55;;;;;;;32.72;17.83;;;;;;;;;;2025116;29;20076;-62
2024/01/07 01:30:55;;;;;;;37.30;22.90;;;;;;;;;;2033794;29;20032;-63
2024/01/07 01:31:57;;;;;;;35.53;19.50;;;;;;;;;;2025399;29;20048;-62
2024/01/07 01:32:57;;;;;;;31.33;17.75;;;;;;;;;;2017640;29;20037;-62
2024/01/07 01:33:58;;;;;;;32.75;18.48;;;;;;;;;;2025342;29;20423;-62
2024/01/07 01:34:59;;;;;;;29.40;18.70;;;;;;;;;;2025775;29;20410;-63
2024/01/07 01:36:03;;;;;;;34.22;18.45;;;;;;;;;;2025226;29;20041;-62
2024/01/07 01:37:04;;;;;;;33.75;18.70;;;;;;;;;;2017899;29;20057;-62
2024/01/07 01:38:05;;;;;;;31.95;17.45;;;;;;;;;;2025446;29;20040;-62
2024/01/07 01:39:06;;;;;;;35.40;18.25;;;;;;;;;;2033990;29;20036;-62
2024/01/07 01:40:07;;;;;;;33.33;19.77;;;;;;;;;;2033716;29;20070;-63
2024/01/07 01:41:08;;;;;;;35.08;17.27;;;;;;;;;;2025277;29;20040;-63
2024/01/07 01:42:09;;;;;;;34.67;19.90;;;;;;;;;;2025627;29;20032;-63
2024/01/07 01:43:09;;;;;;;32.00;18.05;;;;;;;;;;2033649;29;20122;-62
2024/01/07 01:44:10;;;;;;;37.33;21.25;;;;;;;;;;2034084;29;20048;-63
2024/01/07 01:45:11;;;;;;;34.70;19.75;;;;;;;;;;2033699;29;20047;-62
2024/01/07 01:46:12;;;;;;;37.50;21.02;;;;;;;;;;2033675;29;20052;-62
2024/01/07 01:47:13;;;;;;;29.83;15.57;;;;;;;;;;2017658;29;20052;-62
2024/01/07 01:48:14;;;;;;;30.80;18.15;;;;;;;;;;2017940;29;20094;-62
2024/01/07 01:49:14;;;;;;;36.88;21.20;;;;;;;;;;2033709;29;20040;-61
2024/01/07 01:50:17;;;;;;;35.50;20.83;;;;;;;;;;2033804;29;20051;-62
2024/01/07 01:51:18;;;;;;;35.58;21.27;;;;;;;;;;2033442;29;20056;-63
2024/01/07 01:52:19;;;;;;;35.88;20.33;;;;;;;;;;2025272;29;20520;-62
2024/01/07 01:53:19;;;;;;;39.53;21.15;;;;;;;;;;2017542;29;20048;-62
2024/01/07 01:54:20;;;;;;;34.80;20.42;;;;;;;;;;2025010;29;20048;-62
2024/01/07 01:55:21;;;;;;;38.20;21.73;;;;;;;;;;2033561;29;20127;-62
2024/01/07 01:56:22;;;;;;;41.45;23.05;;;;;;;;;;2017533;29;20037;-63
2024/01/07 01:57:22;;;;;;;34.60;20.52;;;;;;;;;;2009843;29;20398;-62
2024/01/07 01:58:23;;;;;;;37.80;20.70;;;;;;;;;;2009988;29;20042;-63
2024/01/07 01:59:24;;;;;;;39.35;22.73;;;;;;;;;;2017381;29;20041;-63
2024/01/07 02:00:25;;;;;;;37.10;20.63;;;;;;;;;;2016426;29;20406;-63
2024/01/07 02:01:26;;;;;;;38.63;21.23;;;;;;;;;;2024846;29;20521;-63
2024/01/07 02:02:27;;;;;;;38.83;21.67;;;;;;;;;;2025384;29;20473;-63
2024/01/07 02:03:28;;;;;;;34.25;21.00;;;;;;;;;;2033565;29;20032;-63
2024/01/07 02:04:29;;;;;;;41.67;22.52;;;;;;;;;;2033504;29;20039;-66
2024/01/07 02:05:29;;;;;;;37.30;22.20;;;;;;;;;;2033475;29;20036;-64
2024/01/07 02:06:30;;;;;;;45.92;20.08;;;;;;;;;;2033668;29;20044;-63
2024/01/07 02:07:31;;;;;;;36.25;20.98;;;;;;;;;;2025188;29;20043;-63
2024/01/07 02:08:32;;;;;;;38.05;18.67;;;;;;;;;;2025350;29;20064;-63
2024/01/07 02:09:32;;;;;;;30.70;16.10;;;;;;;;;;2033602;29;20036;-62
2024/01/07 02:10:36;;;;;;;40.90;20.33;;;;;;;;;;2025384;29;20032;-62
2024/01/07 02:11:36;;;;;;;25.65;15.30;;;;;;;;;;2017800;29;20040;-61
2024/01/07 02:12:37;;;;;;;34.38;19.42;;;;;;;;;;2025445;29;20029;-61
2024/01/07 02:13:38;;;;;;;32.38;18.48;;;;;;;;;;2033523;29;20040;-62
2024/01/07 02:14:39;;;;;;;33.88;19.05;;;;;;;;;;2025750;29;20048;-61
2024/01/07 02:15:40;;;;;;;28.73;15.68;;;;;;;;;;2018970;29;20447;-61
2024/01/07 02:16:40;;;;;;;28.58;15.48;;;;;;;;;;2026593;29;20047;-62
2024/01/07 02:17:41;;;;;;;32.05;17.33;;;;;;;;;;2026729;29;20056;-62
2024/01/07 02:18:42;;;;;;;30.85;17.58;;;;;;;;;;2026900;29;20389;-61
2024/01/07 02:19:43;;;;;;;30.35;18.40;;;;;;;;;;2026550;29;20036;-62
2024/01/07 02:20:44;;;;;;;33.17;18.92;;;;;;;;;;2035077;29;20064;-61
2024/01/07 02:21:44;;;;;;;32.40;18.23;;;;;;;;;;2034334;29;20056;-61
2024/01/07 02:22:45;;;;;;;31.20;17.25;;;;;;;;;;2026845;29;20048;-61
2024/01/07 02:23:46;;;;;;;31.88;18.50;;;;;;;;;;2026390;29;20432;-62
2024/01/07 02:24:46;;;;;;;31.55;17.63;;;;;;;;;;2026566;29;20056;-62
2024/01/07 02:25:47;;;;;;;35.33;17.92;;;;;;;;;;2026605;29;20044;-62
2024/01/07 02:26:48;;;;;;;31.08;17.90;;;;;;;;;;2034874;29;20052;-62
2024/01/07 02:27:49;;;;;;;30.50;19.15;;;;;;;;;;2035212;29;20071;-62
2024/01/07 02:28:49;;;;;;;30.90;17.77;;;;;;;;;;2034982;29;20168;-61
2024/01/07 02:29:50;;;;;;;34.05;19.75;;;;;;;;;;2034950;29;20051;-61
2024/01/07 02:30:51;;;;;;;30.35;16.70;;;;;;;;;;2026496;29;20047;-62
2024/01/07 02:31:51;;;;;;;33.08;18.55;;;;;;;;;;2018771;29;20044;-61
2024/01/07 02:32:52;;;;;;;31.65;18.70;;;;;;;;;;2026744;29;20495;-61
2024/01/07 02:33:53;;;;;;;32.75;19.13;;;;;;;;;;2026655;29;20033;-62
2024/01/07 02:34:54;;;;;;;33.25;18.20;;;;;;;;;;2034881;29;20087;-62
2024/01/07 02:35:54;;;;;;;34.88;19.75;;;;;;;;;;2034775;29;20048;-61
2024/01/07 02:36:55;;;;;;;30.52;16.08;;;;;;;;;;2026337;29;20072;-62
2024/01/07 02:37:56;;;;;;;32.90;17.48;;;;;;;;;;2019190;29;20112;-62
2024/01/07 02:38:57;;;;;;;30.23;16.85;;;;;;;;;;2026591;29;20044;-62
2024/01/07 02:39:58;;;;;;;30.42;16.90;;;;;;;;;;2034831;29;20040;-62
2024/01/07 02:40:58;;;;;;;33.60;17.98;;;;;;;;;;2034835;29;20040;-62
2024/01/07 02:41:59;;;;;;;30.55;17.90;;;;;;;;;;2034917;29;20117;-62
2024/01/07 02:43:00;;;;;;;30.45;17.48;;;;;;;;;;2034800;29;20043;-62
2024/01/07 02:44:01;;;;;;;33.15;19.52;;;;;;;;;;2034891;29;20051;-62
2024/01/07 02:45:02;;;;;;;33.22;18.30;;;;;;;;;;2034776;29;20040;-61
2024/01/07 02:46:03;;;;;;;33.78;19.55;;;;;;;;;;2035243;29;20036;-65
2024/01/07 02:47:04;;;;;;;36.50;20.10;;;;;;;;;;2026357;29;20068;-61
2024/01/07 02:48:05;;;;;;;39.00;20.80;;;;;;;;;;2026172;29;20128;-62
2024/01/07 02:49:06;;;;;;;33.25;17.58;;;;;;;;;;2034973;29;20036;-62
2024/01/07 02:50:06;;;;;;;33.72;19.77;;;;;;;;;;2034728;29;20060;-61
2024/01/07 02:51:08;;;;;;;37.05;20.98;;;;;;;;;;2025973;29;20037;-61
2024/01/07 02:52:08;;;;;;;37.25;21.48;;;;;;;;;;2026581;29;20048;-61
2024/01/07 02:53:10;;;;;;;32.05;20.08;;;;;;;;;;2034811;29;20486;-61
2024/01/07 02:54:11;;;;;;;30.98;16.00;;;;;;;;;;2034757;29;20052;-62
2024/01/07 02:55:12;;;;;;;37.53;20.75;;;;;;;;;;2034893;29;20460;-61
2024/01/07 02:56:13;;;;;;;40.47;21.60;;;;;;;;;;2034431;29;20056;-62
2024/01/07 02:57:13;;;;;;;36.08;20.15;;;;;;;;;;2034176;29;20044;-61
2024/01/07 02:58:14;;;;;;;34.50;19.50;;;;;;;;;;2034723;29;20123;-61
2024/01/07 02:59:15;;;;;;;39.33;21.45;;;;;;;;;;2026320;29;20040;-61
2024/01/07 03:00:16;;;;;;;37.28;19.90;;;;;;;;;;2026303;29;20087;-61
2024/01/07 03:01:16;;;;;;;38.08;21.45;;;;;;;;;;2034840;29;20063;-61
2024/01/07 03:02:17;;;;;;;37.65;22.20;;;;;;;;;;2026198;29;20053;-61
2024/01/07 03:03:18;;;;;;;36.88;21.17;;;;;;;;;;2026316;29;20043;-63
2024/01/07 03:04:19;;;;;;;39.25;21.27;;;;;;;;;;2034778;29;20488;-62
2024/01/07 03:05:20;;;;;;;38.70;21.23;;;;;;;;;;2034616;29;20067;-61
2024/01/07 03:06:20;;;;;;;35.90;21.20;;;;;;;;;;2034778;29;20071;-61
2024/01/07 03:07:21;;;;;;;38.25;21.70;;;;;;;;;;2034714;29;20070;-61
2024/01/07 03:08:22;;;;;;;36.03;17.73;;;;;;;;;;2034579;29;20084;-61
2024/01/07 03:09:22;;;;;;;35.92;21.58;;;;;;;;;;2034573;29;20032;-61
2024/01/07 03:10:23;;;;;;;32.65;18.80;;;;;;;;;;2034932;29;20043;-62
2024/01/07 03:11:24;;;;;;;32.20;17.23;;;;;;;;;;2034613;29;20076;-62
2024/01/07 03:12:25;;;;;;;37.85;20.30;;;;;;;;;;2034562;29;20036;-61
2024/01/07 03:13:25;;;;;;;40.33;22.80;;;;;;;;;;2034693;29;20039;-62
2024/01/07 03:14:26;;;;;;;31.65;16.38;;;;;;;;;;2034516;29;20032;-62
2024/01/07 03:15:27;;;;;;;32.78;16.33;;;;;;;;;;2034663;29;20090;-62
2024/01/07 03:16:28;;;;;;;33.70;17.02;;;;;;;;;;2034566;29;20126;-61
2024/01/07 03:17:28;;;;;;;32.63;19.30;;;;;;;;;;2026282;29;20501;-61
2024/01/07 03:18:29;;;;;;;32.00;18.75;;;;;;;;;;2026206;29;20481;-61
2024/01/07 03:19:30;;;;;;;33.38;18.88;;;;;;;;;;2034662;29;20090;-61
2024/01/07 03:20:31;;;;;;;40.47;19.85;;;;;;;;;;2034584;29;20495;-62
2024/01/07 03:21:32;;;;;;;36.25;20.95;;;;;;;;;;2034534;29;20044;-61
2024/01/07 03:22:32;;;;;;;32.30;19.23;;;;;;;;;;2034567;29;20103;-62
2024/01/07 03:23:33;;;;;;;32.15;18.17;;;;;;;;;;2034577;29;20421;-63
2024/01/07 03:24:34;;;;;;;31.20;19.17;;;;;;;;;;2026242;29;20041;-61
2024/01/07 03:25:35;;;;;;;34.35;21.23;;;;;;;;;;2018523;29;20074;-62
2024/01/07 03:26:35;;;;;;;36.65;17.48;;;;;;;;;;2026222;29;20417;-62
2024/01/07 03:27:36;;;;;;;32.92;20.30;;;;;;;;;;2034715;29;20508;-61
2024/01/07 03:28:37;;;;;;;35.38;18.58;;;;;;;;;;2034638;29;20071;-63
2024/01/07 03:29:38;;;;;;;39.25;21.95;;;;;;;;;;2034576;29;20036;-62
2024/01/07 03:30:38;;;;;;;35.95;21.45;;;;;;;;;;2026224;29;20032;-62
2024/01/07 03:31:39;;;;;;;36.72;18.58;;;;;;;;;;2026180;29;20044;-62
2024/01/07 03:32:40;;;;;;;37.33;22.00;;;;;;;;;;2034516;29;20035;-63
2024/01/07 03:33:41;;;;;;;37.15;21.73;;;;;;;;;;2034484;29;20063;-63
2024/01/07 03:34:41;;;;;;;34.72;20.17;;;;;;;;;;2034416;29;20052;-62
2024/01/07 03:35:42;;;;;;;38.75;20.98;;;;;;;;;;2034332;29;20578;-62
2024/01/07 03:36:43;;;;;;;32.65;19.67;;;;;;;;;;2033800;29;20075;-61
2024/01/07 03:37:44;;;;;;;36.25;21.52;;;;;;;;;;2034302;29;20048;-62
2024/01/07 03:38:44;;;;;;;33.72;19.58;;;;;;;;;;2034432;29;20396;-62
2024/01/07 03:39:46;;;;;;;35.30;20.85;;;;;;;;;;2025616;29;20493;-61
2024/01/07 03:40:47;;;;;;;33.88;17.95;;;;;;;;;;2026135;29;20040;-61
2024/01/07 03:41:48;;;;;;;31.02;17.00;;;;;;;;;;2034499;29;20381;-60
2024/01/07 03:42:49;;;;;;;40.30;22.48;;;;;;;;;;2034414;29;20044;-61
2024/01/07 03:43:50;;;;;;;39.97;22.90;;;;;;;;;;2034390;29;20032;-60
2024/01/07 03:44:50;;;;;;;36.35;20.10;;;;;;;;;;2034342;29;20501;-60
2024/01/07 03:45:51;;;;;;;32.28;19.27;;;;;;;;;;2034376;29;20094;-60
2024/01/07 03:46:52;;;;;;;38.88;21.25;;;;;;;;;;2034323;29;20047;-61
2024/01/07 03:47:52;;;;;;;31.17;18.98;;;;;;;;;;2033994;29;20055;-60
2024/01/07 03:48:53;;;;;;;39.33;22.20;;;;;;;;;;2034073;29;20139;-60
2024/01/07 03:49:54;;;;;;;31.88;18.52;;;;;;;;;;2034056;29;20040;-60
2024/01/07 03:50:55;;;;;;;34.90;18.25;;;;;;;;;;2034199;29;20086;-60
2024/01/07 03:51:55;;;;;;;35.67;17.85;;;;;;;;;;2034161;29;20389;-60
2024/01/07 03:52:56;;;;;;;33.33;18.73;;;;;;;;;;2034344;29;20099;-60
2024/01/07 03:53:57;;;;;;;31.63;16.65;;;;;;;;;;2034504;29;20036;-60
2024/01/07 03:54:58;;;;;;;34.33;20.80;;;;;;;;;;2026165;29;20478;-60
2024/01/07 03:55:58;;;;;;;34.08;20.45;;;;;;;;;;2025891;29;20028;-60
2024/01/07 03:56:59;;;;;;;31.27;17.73;;;;;;;;;;2034348;29;20040;-61
2024/01/07 03:58:00;;;;;;;39.47;20.75;;;;;;;;;;2034272;29;20048;-60
2024/01/07 03:59:00;;;;;;;32.83;18.60;;;;;;;;;;2034272;29;20122;-61
2024/01/07 04:00:01;;;;;;;29.80;13.68;;;;;;;;;;2034355;29;20040;-61
2024/01/07 04:01:05;;;;;;;32.97;18.63;;;;;;;;;;2033918;29;20032;-61
2024/01/07 04:02:06;;;;;;;35.65;18.30;;;;;;;;;;2034181;29;20404;-62
2024/01/07 04:03:06;;;;;;;32.28;18.27;;;;;;;;;;2034239;29;20539;-61
2024/01/07 04:04:07;;;;;;;34.15;19.75;;;;;;;;;;2034187;29;20374;-61
2024/01/07 04:05:09;;;;;;;32.28;17.83;;;;;;;;;;2025434;29;20100;-61
2024/01/07 04:06:09;;;;;;;35.35;20.88;;;;;;;;;;2025680;29;20032;-61
2024/01/07 04:07:10;;;;;;;33.90;18.10;;;;;;;;;;2034195;29;20485;-61
2024/01/07 04:08:11;;;;;;;35.85;18.88;;;;;;;;;;2034286;29;20124;-61
2024/01/07 04:09:12;;;;;;;35.95;22.63;;;;;;;;;;2034165;29;20044;-61
2024/01/07 04:10:13;;;;;;;37.35;21.83;;;;;;;;;;2033960;29;20503;-62
2024/01/07 04:11:13;;;;;;;30.50;17.13;;;;;;;;;;2034115;29;20412;-62
2024/01/07 04:12:14;;;;;;;36.92;18.80;;;;;;;;;;2034187;29;20469;-61
2024/01/07 04:13:15;;;;;;;37.72;23.17;;;;;;;;;;2034339;29;20043;-61
2024/01/07 04:14:15;;;;;;;36.78;22.13;;;;;;;;;;2034167;29;20072;-61
2024/01/07 04:15:16;;;;;;;38.58;21.45;;;;;;;;;;2034254;29;20040;-62
2024/01/07 04:16:18;;;;;;;40.38;23.60;;;;;;;;;;2034064;29;20035;-61
2024/01/07 04:17:19;;;;;;;40.65;22.70;;;;;;;;;;2033783;29;20040;-62
2024/01/07 04:18:19;;;;;;;39.20;21.83;;;;;;;;;;2034340;29;20392;-62
2024/01/07 04:19:20;;;;;;;34.70;19.17;;;;;;;;;;2033971;29;20384;-62
2024/01/07 04:20:21;;;;;;;35.88;20.02;;;;;;;;;;2034118;29;20036;-62
2024/01/07 04:21:22;;;;;;;39.10;22.23;;;;;;;;;;2034266;29;20068;-61
2024/01/07 04:22:22;;;;;;;34.85;17.58;;;;;;;;;;2034225;29;20035;-60
2024/01/07 04:23:23;;;;;;;35.05;19.80;;;;;;;;;;2034063;29;20067;-61
2024/01/07 04:24:24;;;;;;;35.75;21.35;;;;;;;;;;2034173;29;20036;-61
2024/01/07 04:25:24;;;;;;;34.03;19.50;;;;;;;;;;2034290;29;20039;-62
2024/01/07 04:26:25;;;;;;;38.45;21.52;;;;;;;;;;2033986;29;20040;-62
2024/01/07 04:27:26;;;;;;;32.47;19.35;;;;;;;;;;2034352;29;20364;-61
2024/01/07 04:28:27;;;;;;;39.78;22.60;;;;;;;;;;2034095;29;20028;-61
2024/01/07 04:29:28;;;;;;;42.95;22.48;;;;;;;;;;2025278;29;20041;-61
2024/01/07 04:30:28;;;;;;;38.90;23.13;;;;;;;;;;2025650;29;20036;-61
2024/01/07 04:31:29;;;;;;;43.90;25.15;;;;;;;;;;2034049;29;20401;-61
2024/01/07 04:32:30;;;;;;;43.42;24.80;;;;;;;;;;2034009;29;20488;-61
2024/01/07 04:33:30;;;;;;;39.33;24.63;;;;;;;;;;2034064;29;20040;-61
2024/01/07 04:34:31;;;;;;;40.83;22.55;;;;;;;;;;2034192;29;20043;-61
2024/01/07 04:35:32;;;;;;;38.92;23.35;;;;;;;;;;2033826;29;20400;-61
2024/01/07 04:36:33;;;;;;;39.78;22.10;;;;;;;;;;2033928;29;20523;-62
2024/01/07 04:37:34;;;;;;;40.42;23.58;;;;;;;;;;2033544;29;20051;-61
2024/01/07 04:38:35;;;;;;;39.10;20.17;;;;;;;;;;2034093;29;20036;-62
2024/01/07 04:39:36;;;;;;;37.28;22.50;;;;;;;;;;2025727;29;20116;-61
2024/01/07 04:40:36;;;;;;;42.25;24.70;;;;;;;;;;2025594;29;20029;-61
2024/01/07 04:41:37;;;;;;;37.45;22.05;;;;;;;;;;2033960;29;20118;-60
2024/01/07 04:42:38;;;;;;;43.20;24.83;;;;;;;;;;2033965;29;20071;-61
2024/01/07 04:43:39;;;;;;;33.30;18.08;;;;;;;;;;2033993;29;20032;-60
2024/01/07 04:44:39;;;;;;;29.65;15.73;;;;;;;;;;2033981;29;20048;-60
2024/01/07 04:45:40;;;;;;;36.13;20.60;;;;;;;;;;2033944;29;20040;-60
2024/01/07 04:46:41;;;;;;;39.30;22.05;;;;;;;;;;2033967;29;20047;-60
2024/01/07 04:47:42;;;;;;;36.00;19.83;;;;;;;;;;2033933;29;20465;-60
2024/01/07 04:48:42;;;;;;;31.52;17.52;;;;;;;;;;2025361;29;20091;-60
2024/01/07 04:49:43;;;;;;;37.53;21.30;;;;;;;;;;2025656;29;20041;-61
2024/01/07 04:50:44;;;;;;;41.13;19.17;;;;;;;;;;2033828;29;20048;-61
2024/01/07 04:51:45;;;;;;;32.03;18.67;;;;;;;;;;2025611;29;20153;-60
2024/01/07 04:52:46;;;;;;;39.10;20.42;;;;;;;;;;2025297;29;20052;-61
2024/01/07 04:53:48;;;;;;;42.42;24.48;;;;;;;;;;2025449;29;20052;-60
2024/01/07 04:54:50;;;;;;;36.55;20.60;;;;;;;;;;2025569;29;20044;-60
2024/01/07 04:55:51;;;;;;;40.83;22.73;;;;;;;;;;2033943;29;20045;-61
2024/01/07 04:56:51;;;;;;;41.65;23.90;;;;;;;;;;2033891;29;20074;-61
2024/01/07 04:57:52;;;;;;;40.20;22.70;;;;;;;;;;2033847;29;20036;-61
2024/01/07 04:58:53;;;;;;;44.53;25.33;;;;;;;;;;2034001;29;20405;-61
2024/01/07 04:59:54;;;;;;;39.20;19.17;;;;;;;;;;2033917;29;20048;-61
2024/01/07 05:00:54;;;;;;;32.47;14.85;;;;;;;;;;2032900;29;20492;-60
2024/01/07 05:01:55;;;;;;;41.30;22.65;;;;;;;;;;2025628;29;20496;-60
2024/01/07 05:02:56;;;;;;;46.42;24.20;;;;;;;;;;2025386;29;20045;-60
2024/01/07 05:03:56;;;;;;;38.75;19.23;;;;;;;;;;2033955;29;20123;-60
2024/01/07 05:04:57;;;;;;;33.58;18.17;;;;;;;;;;2034138;29;20043;-61
2024/01/07 05:05:58;;;;;;;37.40;21.33;;;;;;;;;;2033894;29;20036;-60
2024/01/07 05:06:59;;;;;;;36.47;16.75;;;;;;;;;;2033877;29;20040;-60
2024/01/07 05:08:00;;;;;;;46.88;26.27;;;;;;;;;;2033832;29;20036;-61
2024/01/07 05:09:01;;;;;;;39.22;23.13;;;;;;;;;;2033930;29;20036;-60
2024/01/07 05:10:02;;;;;;;39.22;20.80;;;;;;;;;;2033833;29;20032;-60
2024/01/07 05:11:03;;;;;;;46.28;21.17;;;;;;;;;;2033976;29;20087;-61
2024/01/07 05:12:04;;;;;;;42.33;21.85;;;;;;;;;;2033786;29;20420;-60
2024/01/07 05:13:06;;;;;;;47.30;24.92;;;;;;;;;;2033759;29;20040;-60
2024/01/07 05:14:07;;;;;;;31.92;16.83;;;;;;;;;;2034042;29;20043;-60
2024/01/07 05:15:08;;;;;;;34.35;18.88;;;;;;;;;;2033744;29;20492;-60
2024/01/07 05:16:17;;;;;;;40.40;20.52;;;;;;;;;;2033906;29;20043;-61
2024/01/07 05:17:18;;;;;;;25.98;13.43;;;;;;;;;;2033893;29;20067;-61
2024/01/07 05:18:22;;;;;;;25.77;13.52;;;;;;;;;;2034078;29;20068;-60
2024/01/07 05:19:23;;;;;;;41.38;21.60;;;;;;;;;;2032883;29;20047;-59
2024/01/07 05:20:24;;;;;;;45.83;24.45;;;;;;;;;;2033781;29;20528;-60
2024/01/07 05:21:24;;;;;;;30.17;15.98;;;;;;;;;;2034232;29;20032;-60
2024/01/07 05:22:25;;;;;;;43.08;24.35;;;;;;;;;;2033459;29;20157;-60
2024/01/07 05:23:26;;;;;;;45.75;26.30;;;;;;;;;;2033678;29;20408;-60
2024/01/07 05:24:27;;;;;;;37.92;18.67;;;;;;;;;;2034116;29;20028;-60
2024/01/07 05:25:27;;;;;;;41.05;23.13;;;;;;;;;;2033134;29;20059;-60
2024/01/07 05:26:28;;;;;;;34.22;16.10;;;;;;;;;;2033778;29;20032;-59
2024/01/07 05:27:29;;;;;;;46.78;23.08;;;;;;;;;;2034033;29;20036;-59
2024/01/07 05:28:29;;;;;;;42.08;20.52;;;;;;;;;;2033787;29;20067;-60
2024/01/07 05:29:30;;;;;;;50.35;28.00;;;;;;;;;;2033779;29;20384;-59
2024/01/07 05:30:31;;;;;;;49.72;26.58;;;;;;;;;;2033148;29;20208;-60
2024/01/07 05:31:32;;;;;;;44.33;24.80;;;;;;;;;;2033747;29;20469;-60
2024/01/07 05:32:32;;;;;;;47.33;24.77;;;;;;;;;;2033801;29;20039;-59
2024/01/07 05:33:33;;;;;;;44.10;21.88;;;;;;;;;;2033729;29;20056;-60
2024/01/07 05:34:34;;;;;;;36.33;17.52;;;;;;;;;;2033738;29;20068;-59
2024/01/07 05:35:34;;;;;;;42.17;19.17;;;;;;;;;;2033623;29;20032;-60
2024/01/07 05:36:35;;;;;;;43.47;23.23;;;;;;;;;;2033760;29;20230;-60
2024/01/07 05:37:36;;;;;;;37.95;16.30;;;;;;;;;;2032983;29;20052;-61
2024/01/07 05:38:37;;;;;;;47.03;25.20;;;;;;;;;;2032969;29;20079;-60
2024/01/07 05:39:37;;;;;;;30.85;13.63;;;;;;;;;;2033503;29;20039;-61
2024/01/07 05:40:38;;;;;;;47.42;24.67;;;;;;;;;;2033393;29;20044;-61
2024/01/07 05:41:39;;;;;;;37.90;18.48;;;;;;;;;;2033659;29;20388;-61
2024/01/07 05:42:39;;;;;;;25.83;12.23;;;;;;;;;;2033778;29;20473;-61
2024/01/07 05:43:40;;;;;;;46.38;23.42;;;;;;;;;;2033489;29;20168;-60
2024/01/07 05:44:42;;;;;;;37.40;21.08;;;;;;;;;;2033633;29;20067;-60
2024/01/07 05:45:42;;;;;;;30.08;14.55;;;;;;;;;;2033781;29;20044;-61
2024/01/07 05:46:43;;;;;;;42.05;23.55;;;;;;;;;;2033704;29;20032;-60
2024/01/07 05:47:44;;;;;;;35.08;15.52;;;;;;;;;;2033730;29;20036;-61
2024/01/07 05:48:45;;;;;;;42.03;19.75;;;;;;;;;;2033656;29;20516;-61
2024/01/07 05:49:46;;;;;;;43.40;21.17;;;;;;;;;;2033524;29;20040;-60
2024/01/07 05:50:46;;;;;;;46.08;24.42;;;;;;;;;;2035386;29;20040;-60
2024/01/07 05:51:48;;;;;;;46.13;24.05;;;;;;;;;;2035231;29;20040;-60
2024/01/07 05:52:48;;;;;;;25.60;13.25;;;;;;;;;;2035163;29;20043;-60
2024/01/07 05:53:49;;;;;;;45.80;23.65;;;;;;;;;;2035164;29;20058;-60